createdAt,value
2019-02-05T00:01:25.944Z,3.33
2019-02-05T00:03:55.498Z,2.83
2019-02-05T00:06:24.933Z,3.30
2019-02-05T00:08:54.395Z,2.93
2019-02-05T00:11:24.053Z,2.90
2019-02-05T00:13:53.622Z,3.10
2019-02-05T00:16:23.998Z,2.40
2019-02-05T00:18:53.698Z,2.70
2019-02-05T00:21:24.430Z,2.53
2019-02-05T00:23:54.765Z,3.33
2019-02-05T00:26:24.466Z,2.70
2019-02-05T00:28:54.190Z,2.87
2019-02-05T00:31:23.708Z,2.97
2019-02-05T00:33:53.500Z,3.00
2019-02-05T00:36:22.854Z,3.00
2019-02-05T00:38:52.576Z,3.20
2019-02-05T00:41:22.089Z,3.80
2019-02-05T00:43:51.494Z,3.13
2019-02-05T00:46:21.731Z,3.10
2019-02-05T00:48:51.739Z,3.00
2019-02-05T00:51:21.348Z,3.03
2019-02-05T00:53:50.857Z,3.10
2019-02-05T00:56:20.156Z,3.03
2019-02-05T00:58:51.208Z,3.10
2019-02-05T01:01:20.613Z,2.90
2019-02-05T01:03:50.101Z,3.10
2019-02-05T01:06:19.585Z,2.97
2019-02-05T01:08:50.234Z,3.23
2019-02-05T01:11:19.943Z,2.77
2019-02-05T01:13:51.132Z,3.53
2019-02-05T01:16:20.642Z,3.10
2019-02-05T01:18:50.513Z,3.40
2019-02-05T01:21:20.142Z,3.67
2019-02-05T01:23:51.550Z,3.20
2019-02-05T01:26:29.097Z,3.10
2019-02-05T01:28:50.631Z,2.67
2019-02-05T01:31:20.015Z,2.90
2019-02-05T01:33:51.530Z,3.17
2019-02-05T01:36:20.802Z,3.50
2019-02-05T01:38:50.515Z,3.20
2019-02-05T01:41:20.174Z,2.87
2019-02-05T01:43:49.932Z,3.30
2019-02-05T01:46:20.276Z,3.43
2019-02-05T01:48:50.464Z,3.00
2019-02-05T01:51:19.852Z,3.37
2019-02-05T01:53:49.244Z,3.10
2019-02-05T01:56:18.910Z,3.30
2019-02-05T01:58:48.826Z,3.63
2019-02-05T02:01:18.347Z,2.97
2019-02-05T02:03:47.735Z,2.90
2019-02-05T02:06:17.397Z,2.83
2019-02-05T02:08:46.925Z,3.17
2019-02-05T02:11:16.335Z,3.00
2019-02-05T02:13:46.186Z,2.97
2019-02-05T02:16:15.514Z,3.10
2019-02-05T02:18:45.054Z,3.27
2019-02-05T02:21:14.076Z,2.80
2019-02-05T02:23:43.628Z,2.90
2019-02-05T02:26:14.420Z,2.87
2019-02-05T02:28:44.058Z,3.63
2019-02-05T02:31:20.148Z,3.20
2019-02-05T02:33:49.765Z,3.30
2019-02-05T02:36:19.413Z,3.37
2019-02-05T02:38:49.098Z,3.30
2019-02-05T02:41:19.983Z,3.20
2019-02-05T02:43:49.386Z,3.33
2019-02-05T02:46:19.330Z,3.43
2019-02-05T02:48:49.292Z,3.70
2019-02-05T02:51:18.963Z,3.37
2019-02-05T02:53:49.295Z,3.40
2019-02-05T02:56:19.020Z,3.27
2019-02-05T02:58:48.849Z,2.73
2019-02-05T03:01:18.371Z,2.57
2019-02-05T03:03:47.590Z,2.93
2019-02-05T03:06:17.235Z,2.97
2019-02-05T03:08:47.720Z,2.77
2019-02-05T03:11:17.236Z,2.97
2019-02-05T03:13:47.180Z,3.53
2019-02-05T03:16:16.768Z,3.37
2019-02-05T03:18:47.469Z,2.93
2019-02-05T03:21:17.538Z,3.17
2019-02-05T03:23:47.105Z,3.03
2019-02-05T03:26:16.933Z,3.03
2019-02-05T03:28:46.830Z,3.67
2019-02-05T03:31:16.367Z,2.90
2019-02-05T03:33:45.858Z,3.20
2019-02-05T03:36:15.495Z,3.00
2019-02-05T03:38:45.202Z,3.60
2019-02-05T03:41:15.230Z,3.07
2019-02-05T03:43:45.488Z,3.73
2019-02-05T03:46:15.287Z,3.33
2019-02-05T03:48:45.621Z,6.97
2019-02-05T03:51:23.299Z,3.30
2019-02-05T03:54:10.401Z,4.27
2019-02-05T03:56:45.753Z,3.37
2019-02-05T04:02:38.810Z,3.67
2019-02-05T04:05:18.314Z,2.77
2019-02-05T04:08:07.205Z,2.97
2019-02-05T04:10:47.752Z,3.40
2019-02-05T04:13:20.516Z,5.47
2019-02-05T04:15:54.892Z,6.03
2019-02-05T04:18:29.135Z,5.00
2019-02-05T04:24:05.078Z,4.55
2019-02-05T04:29:40.171Z,3.65
2019-02-05T04:32:13.520Z,3.50
2019-02-05T04:35:05.234Z,4.53
2019-02-05T04:37:40.532Z,3.37
2019-02-05T04:43:54.545Z,3.08
2019-02-05T04:46:47.896Z,2.63
2019-02-05T04:52:27.336Z,4.00
2019-02-05T04:58:02.442Z,3.20
2019-02-05T05:00:55.087Z,5.03
2019-02-05T05:03:33.683Z,3.20
2019-02-05T05:06:05.793Z,4.33
2019-02-05T05:08:39.044Z,5.33
2019-02-05T05:11:08.608Z,3.20
2019-02-05T05:13:38.138Z,2.73
2019-02-05T05:16:07.752Z,2.43
2019-02-05T05:18:37.172Z,2.27
2019-02-05T05:21:06.522Z,2.63
2019-02-05T05:23:35.970Z,2.37
2019-02-05T05:26:04.986Z,2.40
2019-02-05T05:28:35.016Z,2.40
2019-02-05T05:31:04.660Z,2.40
2019-02-05T05:33:34.205Z,2.80
2019-02-05T05:36:04.803Z,3.20
2019-02-05T05:38:34.385Z,2.23
2019-02-05T05:41:04.698Z,2.10
2019-02-05T05:43:34.570Z,2.43
2019-02-05T05:46:04.163Z,2.10
2019-02-05T05:48:33.668Z,2.23
2019-02-05T05:51:03.514Z,2.73
2019-02-05T05:53:36.498Z,3.90
2019-02-05T05:56:06.011Z,2.90
2019-02-05T05:58:36.308Z,5.40
2019-02-05T06:01:05.712Z,3.00
2019-02-05T06:03:35.208Z,2.83
2019-02-05T06:06:05.291Z,2.50
2019-02-05T06:08:35.481Z,2.20
2019-02-05T06:11:04.987Z,2.50
2019-02-05T06:13:34.600Z,2.40
2019-02-05T06:16:04.259Z,2.47
2019-02-05T06:18:33.811Z,2.70
2019-02-05T06:21:03.320Z,2.27
2019-02-05T06:23:32.782Z,2.50
2019-02-05T06:26:02.492Z,2.40
2019-02-05T06:28:34.788Z,2.00
2019-02-05T06:31:03.106Z,2.10
2019-02-05T06:33:32.649Z,3.93
2019-02-05T06:36:02.358Z,3.03
2019-02-05T06:38:31.734Z,2.80
2019-02-05T06:41:01.038Z,2.77
2019-02-05T06:43:30.257Z,2.47
2019-02-05T06:46:00.189Z,3.00
2019-02-05T06:48:29.508Z,2.33
2019-02-05T06:50:59.212Z,2.20
2019-02-05T06:53:28.848Z,2.20
2019-02-05T06:55:58.474Z,1.93
2019-02-05T06:58:27.969Z,1.97
2019-02-05T07:00:58.014Z,2.10
2019-02-05T07:03:27.610Z,1.97
2019-02-05T07:05:56.955Z,2.90
2019-02-05T07:08:26.571Z,2.10
2019-02-05T07:10:57.813Z,2.20
2019-02-05T07:13:27.112Z,2.27
2019-02-05T07:15:57.972Z,2.13
2019-02-05T07:18:28.335Z,2.23
2019-02-05T07:20:57.782Z,1.63
2019-02-05T07:23:27.092Z,2.23
2019-02-05T07:25:57.368Z,2.27
2019-02-05T07:28:26.826Z,1.80
2019-02-05T07:30:56.525Z,2.20
2019-02-05T07:33:26.391Z,1.90
2019-02-05T07:35:55.999Z,1.80
2019-02-05T07:38:25.675Z,1.90
2019-02-05T07:40:56.066Z,2.50
2019-02-05T07:43:25.645Z,1.73
2019-02-05T07:45:55.090Z,1.87
2019-02-05T07:48:25.232Z,1.93
2019-02-05T07:50:54.837Z,1.83
2019-02-05T07:53:24.491Z,2.20
2019-02-05T07:55:54.237Z,1.90
2019-02-05T07:58:23.605Z,1.73
2019-02-05T08:00:54.002Z,2.13
2019-02-05T08:03:23.276Z,2.20
2019-02-05T08:05:53.747Z,1.87
2019-02-05T08:08:23.189Z,1.90
2019-02-05T08:10:52.676Z,2.13
2019-02-05T08:13:22.590Z,2.50
2019-02-05T08:15:52.080Z,2.20
2019-02-05T08:18:21.896Z,2.00
2019-02-05T08:20:51.394Z,2.13
2019-02-05T08:23:21.776Z,2.00
2019-02-05T08:25:52.111Z,2.10
2019-02-05T08:28:22.077Z,2.10
2019-02-05T08:30:51.607Z,1.90
2019-02-05T08:33:20.972Z,1.90
2019-02-05T08:35:50.864Z,1.87
2019-02-05T08:38:20.513Z,1.90
2019-02-05T08:40:49.995Z,1.93
2019-02-05T08:43:19.922Z,2.10
2019-02-05T08:45:56.398Z,1.93
2019-02-05T08:48:20.055Z,1.87
2019-02-05T08:50:49.757Z,1.77
2019-02-05T08:53:19.469Z,2.20
2019-02-05T08:55:49.178Z,1.90
2019-02-05T08:58:30.157Z,2.00
2019-02-05T09:00:48.671Z,2.30
2019-02-05T09:03:18.109Z,1.80
2019-02-05T09:05:47.509Z,1.87
2019-02-05T09:08:17.031Z,2.37
2019-02-05T09:10:46.514Z,2.00
2019-02-05T09:13:16.633Z,2.10
2019-02-05T09:15:46.348Z,2.40
2019-02-05T09:18:16.048Z,2.47
2019-02-05T09:20:45.704Z,2.67
2019-02-05T09:23:15.199Z,2.50
2019-02-05T09:25:45.657Z,2.73
2019-02-05T09:28:16.545Z,2.10
2019-02-05T09:30:46.049Z,2.40
2019-02-05T09:33:15.864Z,2.27
2019-02-05T09:35:45.458Z,2.50
2019-02-05T09:38:16.005Z,2.00
2019-02-05T09:40:45.804Z,2.37
2019-02-05T09:43:15.685Z,2.50
2019-02-05T09:45:45.270Z,2.87
2019-02-05T09:48:14.846Z,2.37
2019-02-05T09:50:45.244Z,2.57
2019-02-05T09:53:14.184Z,2.67
2019-02-05T09:55:43.738Z,2.53
2019-02-05T09:58:13.493Z,2.50
2019-02-05T10:00:43.109Z,2.80
2019-02-05T10:03:12.585Z,2.20
2019-02-05T10:05:42.054Z,2.40
2019-02-05T10:08:11.449Z,2.20
2019-02-05T10:10:40.759Z,2.40
2019-02-05T10:13:10.082Z,2.47
2019-02-05T10:15:41.021Z,2.17
2019-02-05T10:18:11.253Z,2.00
2019-02-05T10:20:40.644Z,2.37
2019-02-05T10:23:10.580Z,2.40
2019-02-05T10:25:40.355Z,2.33
2019-02-05T10:28:10.175Z,2.40
2019-02-05T10:30:40.185Z,2.30
2019-02-05T10:33:09.848Z,2.10
2019-02-05T10:35:39.501Z,2.30
2019-02-05T10:38:09.215Z,2.60
2019-02-05T10:40:38.819Z,2.27
2019-02-05T10:43:08.532Z,2.57
2019-02-05T10:45:38.182Z,2.40
2019-02-05T10:48:07.932Z,2.00
2019-02-05T10:50:37.447Z,2.37
2019-02-05T10:53:07.075Z,2.50
2019-02-05T10:55:36.668Z,2.43
2019-02-05T10:58:05.969Z,1.83
2019-02-05T11:00:36.426Z,1.80
2019-02-05T11:03:07.133Z,1.70
2019-02-05T11:05:36.839Z,1.87
2019-02-05T11:08:06.571Z,2.20
2019-02-05T11:10:36.145Z,1.93
2019-02-05T11:13:06.888Z,2.33
2019-02-05T11:15:36.453Z,2.17
2019-02-05T11:18:06.309Z,1.90
2019-02-05T11:20:36.028Z,1.70
2019-02-05T11:23:05.754Z,1.80
2019-02-05T11:25:35.109Z,2.10
2019-02-05T11:28:04.528Z,1.90
2019-02-05T11:30:36.905Z,2.17
2019-02-05T11:33:07.473Z,2.10
2019-02-05T11:35:37.040Z,1.80
2019-02-05T11:38:07.056Z,2.50
2019-02-05T11:40:38.038Z,2.00
2019-02-05T11:43:07.704Z,2.10
2019-02-05T11:45:37.418Z,1.90
2019-02-05T11:48:07.330Z,1.50
2019-02-05T11:50:37.231Z,1.67
2019-02-05T11:53:06.357Z,1.87
2019-02-05T11:55:36.347Z,1.70
2019-02-05T11:58:06.065Z,2.03
2019-02-05T12:00:40.275Z,1.80
2019-02-05T12:03:11.018Z,1.70
2019-02-05T12:05:40.726Z,1.73
2019-02-05T12:08:10.151Z,1.70
2019-02-05T12:10:39.565Z,2.00
2019-02-05T12:13:09.153Z,1.93
2019-02-05T12:15:38.933Z,1.73
2019-02-05T12:18:08.422Z,1.67
2019-02-05T12:20:37.864Z,1.70
2019-02-05T12:23:07.406Z,1.60
2019-02-05T12:25:36.653Z,1.50
2019-02-05T12:28:06.056Z,1.63
2019-02-05T12:30:44.973Z,1.40
2019-02-05T12:33:09.882Z,1.70
2019-02-05T12:35:39.249Z,1.80
2019-02-05T12:38:09.081Z,1.90
2019-02-05T12:40:38.485Z,1.50
2019-02-05T12:43:09.026Z,1.40
2019-02-05T12:45:38.979Z,1.70
2019-02-05T12:48:09.189Z,2.07
2019-02-05T12:50:40.778Z,1.67
2019-02-05T12:53:10.106Z,1.53
2019-02-05T12:55:39.522Z,1.83
2019-02-05T12:58:09.336Z,2.00
2019-02-05T13:00:39.762Z,1.40
2019-02-05T13:03:09.698Z,2.17
2019-02-05T13:05:40.115Z,1.63
2019-02-05T13:08:09.710Z,1.70
2019-02-05T13:10:43.210Z,1.67
2019-02-05T13:13:12.516Z,1.50
2019-02-05T13:15:41.837Z,1.73
2019-02-05T13:18:11.093Z,1.80
2019-02-05T13:20:40.785Z,1.70
2019-02-05T13:23:10.585Z,1.60
2019-02-05T13:25:40.570Z,1.50
2019-02-05T13:28:10.568Z,1.67
2019-02-05T13:30:40.209Z,1.70
2019-02-05T13:33:10.497Z,1.90
2019-02-05T13:35:40.752Z,1.50
2019-02-05T13:38:11.137Z,1.57
2019-02-05T13:40:40.731Z,1.90
2019-02-05T13:43:10.684Z,1.90
2019-02-05T13:45:40.887Z,1.63
2019-02-05T13:48:10.993Z,1.70
2019-02-05T13:50:40.277Z,2.07
2019-02-05T13:53:09.704Z,1.43
2019-02-05T13:55:39.791Z,2.00
2019-02-05T13:58:09.849Z,1.70
2019-02-05T14:00:42.736Z,1.83
2019-02-05T14:03:12.684Z,1.70
2019-02-05T14:05:42.481Z,1.80
2019-02-05T14:08:12.874Z,2.27
2019-02-05T14:10:42.829Z,1.90
2019-02-05T14:13:12.400Z,2.20
2019-02-05T14:15:42.178Z,1.77
2019-02-05T14:18:11.712Z,1.83
2019-02-05T14:20:41.129Z,1.77
2019-02-05T14:23:10.520Z,1.50
2019-02-05T14:25:40.416Z,1.67
2019-02-05T14:28:10.095Z,1.87
2019-02-05T14:30:39.809Z,1.73
2019-02-05T14:33:10.235Z,1.60
2019-02-05T14:35:39.809Z,1.80
2019-02-05T14:38:09.389Z,2.20
2019-02-05T14:40:38.854Z,2.00
2019-02-05T14:43:09.118Z,1.73
2019-02-05T14:45:38.865Z,2.13
2019-02-05T14:48:08.641Z,2.13
2019-02-05T14:50:40.762Z,2.20
2019-02-05T14:53:10.246Z,1.83
2019-02-05T14:55:39.766Z,1.73
2019-02-05T14:58:09.891Z,1.80
2019-02-05T15:00:40.614Z,2.20
2019-02-05T15:03:12.106Z,2.10
2019-02-05T15:05:41.509Z,1.90
2019-02-05T15:08:10.989Z,2.13
2019-02-05T15:10:41.043Z,1.60
2019-02-05T15:13:10.697Z,1.90
2019-02-05T15:15:40.428Z,1.70
2019-02-05T15:18:10.845Z,2.03
2019-02-05T15:20:42.040Z,2.00
2019-02-05T15:23:11.603Z,1.83
2019-02-05T15:25:41.549Z,1.90
2019-02-05T15:28:12.334Z,1.80
2019-02-05T15:30:42.237Z,1.80
2019-02-05T15:33:18.571Z,1.80
2019-02-05T15:35:53.276Z,1.90
2019-02-05T15:38:22.774Z,2.13
2019-02-05T15:40:52.079Z,1.83
2019-02-05T15:43:21.514Z,1.73
2019-02-05T15:45:51.111Z,2.20
2019-02-05T15:48:20.384Z,1.87
2019-02-05T15:50:50.751Z,1.97
2019-02-05T15:53:20.216Z,2.33
2019-02-05T15:55:49.631Z,2.00
2019-02-05T15:58:19.056Z,2.10
2019-02-05T16:00:48.547Z,2.30
2019-02-05T16:03:18.175Z,1.90
2019-02-05T16:05:47.484Z,2.10
2019-02-05T16:08:16.925Z,2.80
2019-02-05T16:10:48.371Z,1.93
2019-02-05T16:13:17.839Z,2.23
2019-02-05T16:15:47.440Z,3.33
2019-02-05T16:18:16.772Z,2.00
2019-02-05T16:20:48.281Z,2.10
2019-02-05T16:23:19.381Z,2.03
2019-02-05T16:25:48.983Z,2.10
2019-02-05T16:28:18.829Z,1.77
2019-02-05T16:30:50.690Z,2.60
2019-02-05T16:33:20.233Z,2.13
2019-02-05T16:35:49.819Z,2.17
2019-02-05T16:38:19.384Z,2.40
2019-02-05T16:40:50.447Z,2.17
2019-02-05T16:43:19.978Z,2.10
2019-02-05T16:45:49.287Z,2.73
2019-02-05T16:48:18.681Z,2.00
2019-02-05T16:50:48.628Z,2.50
2019-02-05T16:53:18.247Z,2.40
2019-02-05T16:55:47.610Z,2.10
2019-02-05T16:58:17.049Z,2.63
2019-02-05T17:00:46.640Z,2.50
2019-02-05T17:03:16.274Z,3.00
2019-02-05T17:05:46.633Z,2.53
2019-02-05T17:08:16.381Z,2.73
2019-02-05T17:10:46.013Z,2.63
2019-02-05T17:13:15.711Z,2.43
2019-02-05T17:15:45.061Z,2.57
2019-02-05T17:18:23.190Z,2.70
2019-02-05T17:20:44.401Z,2.37
2019-02-05T17:23:14.524Z,2.57
2019-02-05T17:25:44.281Z,2.37
2019-02-05T17:28:14.402Z,2.58
2019-02-05T17:30:43.852Z,2.53
2019-02-05T17:33:13.671Z,2.70
2019-02-05T17:35:43.485Z,2.45
2019-02-05T17:38:13.149Z,2.83
2019-02-05T17:40:42.557Z,2.72
2019-02-05T17:43:11.884Z,3.12
2019-02-05T17:45:41.953Z,2.83
2019-02-05T17:48:14.080Z,2.90
2019-02-05T17:50:43.775Z,3.05
2019-02-05T17:53:13.198Z,2.95
2019-02-05T17:55:42.573Z,3.03
2019-02-05T17:58:12.151Z,3.22
2019-02-05T18:00:42.920Z,2.97
2019-02-05T18:03:12.304Z,2.90
2019-02-05T18:05:41.811Z,3.17
2019-02-05T18:08:11.131Z,3.10
2019-02-05T18:10:42.049Z,3.60
2019-02-05T18:13:10.811Z,2.80
2019-02-05T18:15:42.357Z,3.20
2019-02-05T18:18:11.687Z,2.97
2019-02-05T18:20:41.072Z,2.90
2019-02-05T18:23:10.718Z,3.00
2019-02-05T18:25:40.380Z,2.53
2019-02-05T18:28:09.782Z,2.80
2019-02-05T18:30:39.479Z,2.97
2019-02-05T18:33:08.762Z,2.50
2019-02-05T18:35:38.433Z,2.73
2019-02-05T18:38:08.221Z,2.53
2019-02-05T18:40:37.809Z,2.63
2019-02-05T18:43:07.199Z,2.67
2019-02-05T18:45:36.692Z,2.87
2019-02-05T18:48:06.145Z,2.77
2019-02-05T18:50:36.015Z,2.73
2019-02-05T18:53:05.386Z,2.37
2019-02-05T18:55:36.111Z,2.70
2019-02-05T18:58:09.177Z,2.58
2019-02-05T19:00:38.719Z,2.87
2019-02-05T19:03:14.856Z,2.95
2019-02-05T19:05:36.994Z,2.85
2019-02-05T19:08:07.764Z,3.03
2019-02-05T19:10:37.457Z,3.43
2019-02-05T19:13:06.900Z,2.83
2019-02-05T19:15:36.896Z,2.97
2019-02-05T19:18:06.786Z,2.97
2019-02-05T19:20:36.866Z,3.10
2019-02-05T19:23:06.321Z,3.00
2019-02-05T19:25:38.922Z,3.40
2019-02-05T19:28:08.708Z,2.77
2019-02-05T19:30:38.492Z,3.40
2019-02-05T19:33:07.770Z,2.97
2019-02-05T19:35:37.109Z,3.05
2019-02-05T19:38:07.569Z,2.72
2019-02-05T19:40:37.135Z,2.90
2019-02-05T19:43:06.596Z,3.17
2019-02-05T19:45:38.940Z,2.67
2019-02-05T19:48:10.272Z,3.08
2019-02-05T19:50:39.990Z,2.95
2019-02-05T19:53:09.412Z,3.15
2019-02-05T19:55:38.918Z,2.65
2019-02-05T19:58:08.514Z,2.72
2019-02-05T20:00:37.807Z,3.00
2019-02-05T20:03:07.488Z,2.55
2019-02-05T20:05:37.098Z,3.00
2019-02-05T20:08:06.645Z,2.53
2019-02-05T20:10:36.167Z,2.62
2019-02-05T20:13:05.645Z,2.53
2019-02-05T20:15:35.200Z,2.53
2019-02-05T20:18:04.639Z,2.47
2019-02-05T20:20:34.476Z,2.70
2019-02-05T20:23:04.014Z,2.30
2019-02-05T20:25:33.575Z,2.53
2019-02-05T20:28:02.872Z,3.03
2019-02-05T20:30:33.082Z,2.87
2019-02-05T20:33:04.137Z,3.42
2019-02-05T20:35:34.087Z,3.42
2019-02-05T20:38:04.929Z,3.17
2019-02-05T20:40:34.498Z,2.87
2019-02-05T20:43:03.557Z,2.65
2019-02-05T20:45:32.991Z,2.85
2019-02-05T20:48:02.958Z,2.78
2019-02-05T20:50:32.550Z,2.70
2019-02-05T20:53:13.072Z,3.30
2019-02-05T20:55:32.348Z,2.80
2019-02-05T20:58:01.803Z,2.93
2019-02-05T21:00:31.653Z,3.00
2019-02-05T21:03:01.294Z,2.70
2019-02-05T21:05:30.706Z,3.43
2019-02-05T21:08:00.566Z,2.73
2019-02-05T21:10:30.300Z,2.87
2019-02-05T21:12:59.937Z,3.67
2019-02-05T21:15:29.651Z,3.23
2019-02-05T21:17:58.826Z,3.17
2019-02-05T21:20:33.541Z,2.83
2019-02-05T21:23:00.482Z,2.73
2019-02-05T21:25:29.902Z,3.20
2019-02-05T21:28:00.183Z,3.10
2019-02-05T21:30:29.840Z,3.60
2019-02-05T21:32:59.253Z,3.07
2019-02-05T21:35:29.347Z,3.40
2019-02-05T21:38:00.317Z,2.90
2019-02-05T21:40:31.641Z,2.80
2019-02-05T21:42:59.458Z,2.90
2019-02-05T21:45:32.354Z,3.00
2019-02-05T21:48:01.775Z,2.83
2019-02-05T21:50:31.122Z,2.63
2019-02-05T21:53:01.009Z,3.00
2019-02-05T21:55:31.648Z,2.90
2019-02-05T21:58:01.143Z,2.93
2019-02-05T22:00:30.821Z,2.93
2019-02-05T22:03:00.576Z,2.63
2019-02-05T22:05:30.478Z,2.97
2019-02-05T22:08:00.139Z,2.87
2019-02-05T22:10:29.669Z,3.10
2019-02-05T22:12:59.005Z,3.23
2019-02-05T22:15:28.803Z,2.97
2019-02-05T22:17:58.665Z,2.70
2019-02-05T22:20:28.556Z,3.00
2019-02-05T22:22:58.912Z,2.70
2019-02-05T22:25:29.946Z,2.60
2019-02-05T22:27:59.417Z,2.77
2019-02-05T22:30:33.526Z,3.00
2019-02-05T22:33:03.085Z,2.77
2019-02-05T22:35:32.626Z,3.10
2019-02-05T22:38:02.072Z,2.60
2019-02-05T22:40:31.778Z,2.77
2019-02-05T22:43:01.226Z,2.60
2019-02-05T22:45:31.880Z,2.77
2019-02-05T22:48:02.433Z,2.40
2019-02-05T22:50:33.762Z,2.40
2019-02-05T22:53:03.748Z,2.30
2019-02-05T22:55:33.482Z,2.83
2019-02-05T22:58:02.854Z,2.50
2019-02-05T23:00:51.629Z,2.10
2019-02-05T23:03:28.980Z,2.80
2019-02-05T23:08:58.979Z,3.10
2019-02-05T23:11:34.274Z,2.63
2019-02-05T23:14:03.647Z,2.63
2019-02-05T23:16:33.104Z,3.00
2019-02-05T23:19:03.276Z,3.03
2019-02-05T23:21:33.011Z,3.10
2019-02-05T23:24:02.790Z,3.30
2019-02-05T23:26:32.474Z,3.10
2019-02-05T23:29:02.036Z,3.60
2019-02-05T23:31:31.433Z,3.67
2019-02-05T23:34:01.126Z,3.23
2019-02-05T23:36:30.408Z,3.90
2019-02-05T23:38:59.873Z,3.37
2019-02-05T23:41:29.975Z,3.53
2019-02-05T23:43:59.204Z,3.00
2019-02-05T23:46:29.365Z,3.23
2019-02-05T23:48:58.867Z,3.40
2019-02-05T23:51:28.708Z,3.50
2019-02-05T23:53:58.423Z,3.40
2019-02-05T23:56:28.392Z,3.63
2019-02-05T23:58:58.075Z,3.07
